Time,TemperatureF,DewpointF,PressureIn,WindDirection,WindDirectionDegrees,WindSpeedMPH,WindSpeedGustMPH,Humidity,HourlyPrecipIn,Conditions,Clouds,dailyrainin,SolarRadiationWatts/m^2,SoftwareType,DateUTC
2013-04-29 00:00:00,56.2,50.1,28.57,SSE,153,0.0,0.0,80,0.00,FEW,,0.00,0.0,WeatherDisplay:10.37,2013-04-29 05:00:00,
2013-04-29 00:10:00,55.4,50.0,28.57,SSE,153,0.0,0.0,82,0.00,FEW,,0.00,0.0,WeatherDisplay:10.37,2013-04-29 05:10:00,
2013-04-29 00:20:00,55.2,50.1,28.57,SSE,153,0.0,4.0,83,0.00,FEW,,0.00,0.0,WeatherDisplay:10.37,2013-04-29 05:20:00,
2013-04-29 00:30:00,56.0,50.9,28.57,SSE,154,3.0,7.0,83,0.00,FEW,,0.00,0.0,WeatherDisplay:10.37,2013-04-29 05:30:00,
2013-04-29 00:40:00,56.5,51.1,28.57,SSE,155,2.0,6.0,82,0.00,FEW,,0.00,0.0,WeatherDisplay:10.37,2013-04-29 05:40:00,
2013-04-29 00:50:00,56.3,50.9,28.57,SSE,155,3.0,6.0,82,0.00,FEW,,0.00,0.0,WeatherDisplay:10.37,2013-04-29 05:50:00,
2013-04-29 01:00:00,56.2,50.8,28.57,SSE,153,2.0,7.0,82,0.00,FEW,,0.00,0.0,WeatherDisplay:10.37,2013-04-29 06:00:00,
2013-04-29 01:10:00,55.8,50.7,28.57,SSE,153,3.0,6.0,83,0.00,FEW,,0.00,0.0,WeatherDisplay:10.37,2013-04-29 06:10:00,
2013-04-29 01:20:00,55.5,50.7,28.56,SSE,153,2.0,5.0,84,0.00,FEW,,0.00,0.0,WeatherDisplay:10.37,2013-04-29 06:20:00,
2013-04-29 01:30:00,55.2,50.5,28.56,SSE,153,1.0,4.0,84,0.00,FEW,,0.00,0.0,WeatherDisplay:10.37,2013-04-29 06:30:00,
2013-04-29 01:40:00,54.9,50.5,28.56,SSE,153,1.0,5.0,85,0.00,FEW,,0.00,0.0,WeatherDisplay:10.37,2013-04-29 06:40:00,
2013-04-29 01:50:00,54.6,50.5,28.56,SSE,153,0.0,4.0,86,0.00,FEW,,0.00,0.0,WeatherDisplay:10.37,2013-04-29 06:50:00,
2013-04-29 02:00:00,54.2,50.1,28.56,SSE,153,0.0,3.0,86,0.00,FEW,,0.00,0.0,WeatherDisplay:10.37,2013-04-29 07:00:00,
2013-04-29 02:10:00,53.5,49.7,28.55,SSE,153,0.0,1.0,87,0.00,FEW,,0.00,0.0,WeatherDisplay:10.37,2013-04-29 07:10:00,
2013-04-29 02:20:00,53.1,49.6,28.55,SSE,153,0.0,3.0,88,0.00,FEW,,0.00,0.0,WeatherDisplay:10.37,2013-04-29 07:20:00,
2013-04-29 02:30:00,53.2,50.3,28.55,SSE,153,1.0,5.0,90,0.00,FEW,,0.00,0.0,WeatherDisplay:10.37,2013-04-29 07:30:00,
2013-04-29 02:40:00,53.6,50.7,28.55,SSE,153,1.0,3.0,90,0.00,FEW,,0.00,0.0,WeatherDisplay:10.37,2013-04-29 07:40:00,
2013-04-29 02:50:00,53.8,50.9,28.55,SSE,153,1.0,4.0,90,0.00,FEW,,0.00,0.0,WeatherDisplay:10.37,2013-04-29 07:50:00,
2013-04-29 03:00:00,53.9,50.7,28.55,SSE,153,1.0,3.0,89,0.00,FEW,,0.00,0.0,WeatherDisplay:10.37,2013-04-29 08:00:00,
2013-04-29 03:10:00,53.8,50.6,28.55,SSE,153,0.0,4.0,89,0.00,FEW,,0.00,0.0,WeatherDisplay:10.37,2013-04-29 08:10:00,
2013-04-29 03:20:00,53.3,50.1,28.55,SSE,153,0.0,0.0,89,0.00,FEW,,0.00,0.0,WeatherDisplay:10.37,2013-04-29 08:20:00,
2013-04-29 03:30:00,52.7,49.8,28.55,SSE,153,0.0,0.0,90,0.00,FEW,,0.00,0.0,WeatherDisplay:10.37,2013-04-29 08:30:00,
2013-04-29 03:40:00,52.3,49.8,28.55,SSE,153,0.0,3.0,91,0.00,FEW,,0.00,0.0,WeatherDisplay:10.37,2013-04-29 08:40:00,
2013-04-29 03:50:00,52.0,49.5,28.55,SSE,153,0.0,0.0,91,0.00,FEW,,0.00,0.0,WeatherDisplay:10.37,2013-04-29 08:50:00,
2013-04-29 04:00:00,51.8,49.5,28.56,SSE,153,0.0,0.0,92,0.00,FEW,,0.00,0.0,WeatherDisplay:10.37,2013-04-29 09:00:00,
2013-04-29 04:10:00,51.7,49.7,28.56,SSE,153,0.0,0.0,93,0.00,FEW,,0.00,0.0,WeatherDisplay:10.37,2013-04-29 09:10:00,
2013-04-29 04:20:00,51.6,49.6,28.56,SSE,153,0.0,0.0,93,0.00,FEW,,0.00,0.0,WeatherDisplay:10.37,2013-04-29 09:20:00,
2013-04-29 04:30:00,51.5,49.8,28.56,SSE,153,0.0,0.0,94,0.00,FEW,,0.00,0.0,WeatherDisplay:10.37,2013-04-29 09:30:00,
2013-04-29 04:40:00,51.4,49.7,28.57,SSE,153,0.0,0.0,94,0.00,FEW,,0.00,0.0,WeatherDisplay:10.37,2013-04-29 09:40:00,
2013-04-29 04:50:00,51.2,49.5,28.56,SSE,153,0.0,0.0,94,0.00,FEW,,0.00,0.0,WeatherDisplay:10.37,2013-04-29 09:50:00,
2013-04-29 05:00:00,51.2,49.5,28.56,SSE,153,0.0,0.0,94,0.00,FEW,,0.00,0.0,WeatherDisplay:10.37,2013-04-29 10:00:00,
2013-04-29 05:10:00,51.0,49.3,28.56,SSE,153,0.0,0.0,94,0.00,FEW,,0.00,0.0,WeatherDisplay:10.37,2013-04-29 10:10:00,
2013-04-29 05:20:00,51.0,49.6,28.56,SSE,153,0.0,0.0,95,0.00,FEW,,0.00,0.0,WeatherDisplay:10.37,2013-04-29 10:20:00,
2013-04-29 05:30:00,50.8,49.4,28.56,SSE,153,0.0,0.0,95,0.00,FEW,,0.00,0.0,WeatherDisplay:10.37,2013-04-29 10:30:00,
2013-04-29 05:40:00,50.6,49.2,28.57,SSE,153,0.0,0.0,95,0.00,FEW,,0.00,0.0,WeatherDisplay:10.37,2013-04-29 10:40:00,
2013-04-29 05:50:00,50.5,49.1,28.57,SSE,153,0.0,0.0,95,0.00,FEW,,0.00,0.0,WeatherDisplay:10.37,2013-04-29 10:50:00,
2013-04-29 06:00:00,50.2,48.8,28.57,SSE,153,0.0,0.0,95,0.00,FEW,,0.00,0.0,WeatherDisplay:10.37,2013-04-29 11:00:00,
2013-04-29 06:10:00,50.0,48.6,28.57,SSE,153,0.0,1.0,95,0.00,FEW,,0.00,0.0,WeatherDisplay:10.37,2013-04-29 11:10:00,
2013-04-29 06:20:00,49.9,48.5,28.57,SSE,153,0.0,0.0,95,0.00,FEW,,0.00,0.0,WeatherDisplay:10.37,2013-04-29 11:20:00,
2013-04-29 06:30:00,50.1,49.0,28.58,SSE,153,0.0,0.0,96,0.00,FEW,,0.00,0.0,WeatherDisplay:10.37,2013-04-29 11:30:00,
2013-04-29 06:40:00,50.0,48.9,28.58,SSE,153,0.0,0.0,96,0.00,FEW,,0.00,0.0,WeatherDisplay:10.37,2013-04-29 11:40:00,
2013-04-29 06:50:00,50.1,49.0,28.58,SSE,153,0.0,0.0,96,0.00,FEW,,0.00,0.0,WeatherDisplay:10.37,2013-04-29 11:50:00,
2013-04-29 07:00:00,50.3,49.2,28.58,SSE,153,0.0,1.0,96,0.00,FEW,,0.00,0.0,WeatherDisplay:10.37,2013-04-29 12:00:00,
2013-04-29 07:10:00,50.7,49.9,28.58,SSE,153,0.0,0.0,97,0.00,FEW,,0.00,0.0,WeatherDisplay:10.37,2013-04-29 12:10:00,
2013-04-29 07:20:00,51.4,50.6,28.58,SSE,153,0.0,0.0,97,0.00,FEW,,0.00,0.0,WeatherDisplay:10.37,2013-04-29 12:20:00,
2013-04-29 07:30:00,52.4,51.6,28.59,SSE,153,0.0,1.0,97,0.00,FEW,,0.00,0.0,WeatherDisplay:10.37,2013-04-29 12:30:00,
2013-04-29 07:40:00,53.5,52.4,28.59,SSE,153,0.0,1.0,96,0.00,FEW,,0.00,0.0,WeatherDisplay:10.37,2013-04-29 12:40:00,
2013-04-29 07:50:00,54.5,52.9,28.59,SSE,153,1.0,4.0,94,0.00,FEW,,0.00,0.0,WeatherDisplay:10.37,2013-04-29 12:50:00,
2013-04-29 08:00:00,55.6,53.3,28.59,SSE,153,0.0,4.0,92,0.00,FEW,,0.00,0.0,WeatherDisplay:10.37,2013-04-29 13:00:00,
2013-04-29 08:10:00,56.6,53.4,28.59,SSE,154,2.0,6.0,89,0.00,FEW,,0.00,0.0,WeatherDisplay:10.37,2013-04-29 13:10:00,
2013-04-29 08:20:00,57.6,54.4,28.59,South,171,0.0,6.0,89,0.00,FEW,,0.00,0.0,WeatherDisplay:10.37,2013-04-29 13:20:00,
2013-04-29 08:30:00,58.8,54.9,28.59,South,171,1.0,6.0,87,0.00,FEW,,0.00,0.0,WeatherDisplay:10.37,2013-04-29 13:30:00,
2013-04-29 08:40:00,59.7,55.5,28.59,SSE,168,3.0,6.0,86,0.00,FEW,,0.00,0.0,WeatherDisplay:10.37,2013-04-29 13:40:00,
2013-04-29 08:50:00,60.7,56.2,28.59,South,169,2.0,6.0,85,0.00,FEW,,0.00,0.0,WeatherDisplay:10.37,2013-04-29 13:50:00,
2013-04-29 09:00:00,62.0,57.1,28.58,South,174,0.0,8.0,84,0.00,FEW,,0.00,0.0,WeatherDisplay:10.37,2013-04-29 14:00:00,
2013-04-29 09:10:00,63.4,57.2,28.58,South,184,5.0,10.0,80,0.00,FEW,,0.00,0.0,WeatherDisplay:10.37,2013-04-29 14:10:00,
2013-04-29 09:20:00,64.6,57.9,28.58,SSE,167,5.0,10.0,79,0.00,FEW,,0.00,0.0,WeatherDisplay:10.37,2013-04-29 14:20:00,
2013-04-29 09:30:00,65.2,57.8,28.58,South,172,6.0,12.0,77,0.00,FEW,,0.00,0.0,WeatherDisplay:10.37,2013-04-29 14:30:00,
2013-04-29 09:40:00,65.6,58.2,28.58,South,186,6.0,12.0,77,0.00,FEW,,0.00,0.0,WeatherDisplay:10.37,2013-04-29 14:40:00,
2013-04-29 09:50:00,66.1,58.7,28.58,South,181,3.0,10.0,77,0.00,FEW,,0.00,0.0,WeatherDisplay:10.37,2013-04-29 14:50:00,
2013-04-29 10:00:00,66.6,59.2,28.57,South,177,2.0,13.0,77,0.00,FEW,,0.00,0.0,WeatherDisplay:10.37,2013-04-29 15:00:00,
2013-04-29 10:10:00,67.2,59.3,28.57,South,180,5.0,12.0,76,0.00,FEW,,0.00,0.0,WeatherDisplay:10.37,2013-04-29 15:10:00,
2013-04-29 10:20:00,67.5,59.3,28.57,South,180,5.0,12.0,75,0.00,FEW,,0.00,0.0,WeatherDisplay:10.37,2013-04-29 15:20:00,
2013-04-29 10:30:00,68.2,60.0,28.57,South,187,5.0,14.0,75,0.00,FEW,,0.00,0.0,WeatherDisplay:10.37,2013-04-29 15:30:00,
2013-04-29 10:40:00,69.2,60.6,28.57,South,182,5.0,12.0,74,0.00,FEW,,0.00,0.0,WeatherDisplay:10.37,2013-04-29 15:40:00,
2013-04-29 10:50:00,70.0,60.5,28.57,South,186,5.0,12.0,72,0.00,FEW,,0.00,0.0,WeatherDisplay:10.37,2013-04-29 15:50:00,
2013-04-29 11:00:00,70.5,61.0,28.56,SSE,157,5.0,12.0,72,0.00,FEW,,0.00,0.0,WeatherDisplay:10.37,2013-04-29 16:00:00,
2013-04-29 11:10:00,71.5,61.6,28.56,SSE,161,6.0,12.0,71,0.00,FEW,,0.00,0.0,WeatherDisplay:10.37,2013-04-29 16:10:00,
2013-04-29 11:20:00,72.2,61.9,28.56,South,174,7.0,10.0,70,0.00,FEW,,0.00,0.0,WeatherDisplay:10.37,2013-04-29 16:20:00,
2013-04-29 11:30:00,72.9,62.6,28.56,South,177,3.0,10.0,70,0.00,FEW,,0.00,0.0,WeatherDisplay:10.37,2013-04-29 16:30:00,
2013-04-29 11:40:00,73.9,62.7,28.56,SSE,166,7.0,12.0,68,0.00,FEW,,0.00,0.0,WeatherDisplay:10.37,2013-04-29 16:40:00,
2013-04-29 11:50:00,75.1,63.0,28.55,South,185,7.0,13.0,66,0.00,FEW,,0.00,0.0,WeatherDisplay:10.37,2013-04-29 16:50:00,
2013-04-29 12:00:00,75.7,63.1,28.55,South,183,6.0,12.0,65,0.00,FEW,,0.00,0.0,WeatherDisplay:10.37,2013-04-29 17:00:00,
2013-04-29 12:10:00,76.0,63.0,28.54,South,187,7.0,12.0,64,0.00,FEW,,0.00,0.0,WeatherDisplay:10.37,2013-04-29 17:10:00,
2013-04-29 12:20:00,76.6,63.5,28.54,South,187,7.0,12.0,64,0.00,FEW,,0.00,0.0,WeatherDisplay:10.37,2013-04-29 17:20:00,
2013-04-29 12:30:00,77.1,62.6,28.53,South,187,5.0,12.0,61,0.00,FEW,,0.00,0.0,WeatherDisplay:10.37,2013-04-29 17:30:00,
2013-04-29 12:40:00,77.4,63.8,28.53,South,182,5.0,13.0,63,0.00,FEW,,0.00,0.0,WeatherDisplay:10.37,2013-04-29 17:40:00,
2013-04-29 12:50:00,77.9,63.4,28.52,South,186,6.0,12.0,61,0.00,FEW,,0.00,0.0,WeatherDisplay:10.37,2013-04-29 17:50:00,
2013-04-29 13:00:00,78.4,63.4,28.52,South,186,6.0,12.0,60,0.00,FEW,,0.00,0.0,WeatherDisplay:10.37,2013-04-29 18:00:00,
2013-04-29 13:10:00,79.0,63.4,28.52,SSW,196,3.0,12.0,59,0.00,FEW,,0.00,0.0,WeatherDisplay:10.37,2013-04-29 18:10:00,
2013-04-29 13:20:00,79.3,63.2,28.51,South,191,6.0,13.0,58,0.00,FEW,,0.00,0.0,WeatherDisplay:10.37,2013-04-29 18:20:00,
2013-04-29 13:30:00,79.4,63.8,28.50,South,186,7.0,12.0,59,0.00,FEW,,0.00,0.0,WeatherDisplay:10.37,2013-04-29 18:30:00,
2013-04-29 13:40:00,79.9,63.8,28.50,South,176,6.0,13.0,58,0.00,FEW,,0.00,0.0,WeatherDisplay:10.37,2013-04-29 18:40:00,
2013-04-29 13:50:00,80.3,64.2,28.50,South,173,5.0,15.0,58,0.00,FEW,,0.00,0.0,WeatherDisplay:10.37,2013-04-29 18:50:00,
2013-04-29 14:00:00,80.8,64.6,28.50,SSW,201,6.0,14.0,58,0.00,FEW,,0.00,0.0,WeatherDisplay:10.37,2013-04-29 19:00:00,
2013-04-29 14:10:00,81.4,62.1,28.49,South,189,7.0,14.0,52,0.00,FEW,,0.00,0.0,WeatherDisplay:10.37,2013-04-29 19:10:00,
2013-04-29 14:20:00,81.6,62.8,28.49,South,173,3.0,14.0,53,0.00,FEW,,0.00,0.0,WeatherDisplay:10.37,2013-04-29 19:20:00,
2013-04-29 14:30:00,81.5,62.2,28.49,South,177,7.0,12.0,52,0.00,FEW,,0.00,0.0,WeatherDisplay:10.37,2013-04-29 19:30:00,
2013-04-29 14:40:00,81.7,61.9,28.48,SSE,168,8.0,14.0,51,0.00,FEW,,0.00,0.0,WeatherDisplay:10.37,2013-04-29 19:40:00,
2013-04-29 14:50:00,82.2,61.2,28.48,South,183,7.0,14.0,49,0.00,FEW,,0.00,0.0,WeatherDisplay:10.37,2013-04-29 19:50:00,
2013-04-29 15:00:00,82.7,61.0,28.47,SSW,197,5.0,12.0,48,0.00,FEW,,0.00,0.0,WeatherDisplay:10.37,2013-04-29 20:00:00,
2013-04-29 15:10:00,82.0,61.0,28.47,South,189,9.0,13.0,49,0.00,FEW,,0.00,0.0,WeatherDisplay:10.37,2013-04-29 20:10:00,
2013-04-29 15:20:00,82.5,61.4,28.47,South,187,7.0,13.0,49,0.00,FEW,,0.00,0.0,WeatherDisplay:10.37,2013-04-29 20:20:00,
2013-04-29 15:30:00,82.3,62.9,28.46,SSW,201,3.0,10.0,52,0.00,FEW,,0.00,0.0,WeatherDisplay:10.37,2013-04-29 20:30:00,
2013-04-29 15:40:00,83.3,61.0,28.46,South,185,3.0,13.0,47,0.00,FEW,,0.00,0.0,WeatherDisplay:10.37,2013-04-29 20:40:00,
2013-04-29 15:50:00,83.2,59.6,28.46,SSW,198,5.0,13.0,45,0.00,FEW,,0.00,0.0,WeatherDisplay:10.37,2013-04-29 20:50:00,
2013-04-29 16:00:00,83.3,58.5,28.45,South,184,5.0,13.0,43,0.00,FEW,,0.00,0.0,WeatherDisplay:10.37,2013-04-29 21:00:00,
2013-04-29 16:10:00,83.7,59.5,28.45,SSW,198,3.0,13.0,44,0.00,FEW,,0.00,0.0,WeatherDisplay:10.37,2013-04-29 21:10:00,
2013-04-29 16:20:00,83.7,58.2,28.45,South,189,6.0,14.0,42,0.00,FEW,,0.00,0.0,WeatherDisplay:10.37,2013-04-29 21:20:00,
2013-04-29 16:30:00,83.3,58.5,28.45,South,180,5.0,12.0,43,0.00,FEW,,0.00,0.0,WeatherDisplay:10.37,2013-04-29 21:30:00,
2013-04-29 16:40:00,83.0,56.2,28.44,South,176,9.0,16.0,40,0.00,FEW,,0.00,0.0,WeatherDisplay:10.37,2013-04-29 21:40:00,
2013-04-29 16:50:00,83.4,55.8,28.45,SSW,202,7.0,12.0,39,0.00,FEW,,0.00,0.0,WeatherDisplay:10.37,2013-04-29 21:50:00,
2013-04-29 17:00:00,83.3,55.8,28.44,South,180,7.0,14.0,39,0.00,FEW,,0.00,0.0,WeatherDisplay:10.37,2013-04-29 22:00:00,
2013-04-29 17:10:00,83.4,56.5,28.44,SSW,195,3.0,14.0,40,0.00,FEW,,0.00,0.0,WeatherDisplay:10.37,2013-04-29 22:10:00,
2013-04-29 17:20:00,83.4,57.2,28.45,South,176,2.0,12.0,41,0.00,FEW,,0.00,0.0,WeatherDisplay:10.37,2013-04-29 22:20:00,
2013-04-29 17:30:00,83.5,55.9,28.44,South,182,2.0,13.0,39,0.00,FEW,,0.00,0.0,WeatherDisplay:10.37,2013-04-29 22:30:00,
2013-04-29 17:40:00,83.4,55.8,28.44,South,190,5.0,12.0,39,0.00,FEW,,0.00,0.0,WeatherDisplay:10.37,2013-04-29 22:40:00,
2013-04-29 17:50:00,83.1,53.4,28.44,SSW,192,5.0,12.0,36,0.00,FEW,,0.00,0.0,WeatherDisplay:10.37,2013-04-29 22:50:00,
2013-04-29 18:00:00,83.0,53.3,28.44,South,172,6.0,12.0,36,0.00,FEW,,0.00,0.0,WeatherDisplay:10.37,2013-04-29 23:00:00,
2013-04-29 18:10:00,82.7,55.3,28.44,SSW,194,2.0,10.0,39,0.00,FEW,,0.00,0.0,WeatherDisplay:10.37,2013-04-29 23:10:00,
2013-04-29 18:20:00,82.7,53.7,28.44,SSW,197,3.0,12.0,37,0.00,FEW,,0.00,0.0,WeatherDisplay:10.37,2013-04-29 23:20:00,
2013-04-29 18:30:00,82.7,55.2,28.44,SSW,202,1.0,10.0,39,0.00,FEW,,0.00,0.0,WeatherDisplay:10.37,2013-04-29 23:30:00,
2013-04-29 18:40:00,82.4,55.0,28.44,SSW,196,1.0,10.0,39,0.00,FEW,,0.00,0.0,WeatherDisplay:10.37,2013-04-29 23:40:00,
2013-04-29 18:50:00,81.9,55.9,28.44,South,188,2.0,6.0,41,0.00,FEW,,0.00,0.0,WeatherDisplay:10.37,2013-04-29 23:50:00,
2013-04-29 19:00:00,81.2,56.6,28.44,South,186,0.0,7.0,43,0.00,FEW,,0.00,0.0,WeatherDisplay:10.37,2013-04-30 00:00:00,
2013-04-29 19:10:00,80.5,56.0,28.44,South,191,0.0,9.0,43,0.00,FEW,,0.00,0.0,WeatherDisplay:10.37,2013-04-30 00:10:00,
2013-04-29 19:20:00,79.8,56.0,28.44,SSW,201,0.0,7.0,44,0.00,FEW,,0.00,0.0,WeatherDisplay:10.37,2013-04-30 00:20:00,
2013-04-29 19:30:00,79.2,55.4,28.44,SSW,197,2.0,6.0,44,0.00,FEW,,0.00,0.0,WeatherDisplay:10.37,2013-04-30 00:30:00,
2013-04-29 19:40:00,78.4,55.9,28.44,SSW,199,0.0,4.0,46,0.00,FEW,,0.00,0.0,WeatherDisplay:10.37,2013-04-30 00:40:00,
2013-04-29 19:50:00,77.4,55.6,28.44,SSW,199,0.0,5.0,47,0.00,FEW,,0.00,0.0,WeatherDisplay:10.37,2013-04-30 00:50:00,
2013-04-29 20:00:00,76.5,55.4,28.44,SSW,197,1.0,5.0,48,0.00,FEW,,0.00,0.0,WeatherDisplay:10.37,2013-04-30 01:00:00,
2013-04-29 20:10:00,75.9,55.4,28.45,SSW,195,1.0,4.0,49,0.00,FEW,,0.00,0.0,WeatherDisplay:10.37,2013-04-30 01:10:00,
2013-04-29 20:20:00,75.4,54.9,28.45,SSW,192,1.0,5.0,49,0.00,FEW,,0.00,0.0,WeatherDisplay:10.37,2013-04-30 01:20:00,
2013-04-29 20:30:00,75.0,55.1,28.45,SSW,194,1.0,5.0,50,0.00,FEW,,0.00,0.0,WeatherDisplay:10.37,2013-04-30 01:30:00,
2013-04-29 20:40:00,74.6,55.3,28.46,SSW,194,0.0,3.0,51,0.00,FEW,,0.00,0.0,WeatherDisplay:10.37,2013-04-30 01:40:00,
2013-04-29 20:50:00,73.7,55.5,28.46,SSW,194,0.0,1.0,53,0.00,FEW,,0.00,0.0,WeatherDisplay:10.37,2013-04-30 01:50:00,
2013-04-29 21:00:00,72.1,55.1,28.46,SSW,194,0.0,0.0,55,0.00,FEW,,0.00,0.0,WeatherDisplay:10.37,2013-04-30 02:00:00,
2013-04-29 21:10:00,70.7,55.2,28.47,SSW,194,0.0,0.0,58,0.00,FEW,,0.00,0.0,WeatherDisplay:10.37,2013-04-30 02:10:00,
2013-04-29 21:20:00,69.2,55.2,28.47,SSW,194,0.0,0.0,61,0.00,FEW,,0.00,0.0,WeatherDisplay:10.37,2013-04-30 02:20:00,
2013-04-29 21:30:00,68.2,55.2,28.47,SSW,194,0.0,0.0,63,0.00,FEW,,0.00,0.0,WeatherDisplay:10.37,2013-04-30 02:30:00,
2013-04-29 21:40:00,67.5,55.7,28.48,SSW,194,0.0,0.0,66,0.00,FEW,,0.00,0.0,WeatherDisplay:10.37,2013-04-30 02:40:00,
2013-04-29 21:50:00,66.9,56.0,28.48,SSW,194,0.0,0.0,68,0.00,FEW,,0.00,0.0,WeatherDisplay:10.37,2013-04-30 02:50:00,
2013-04-29 22:00:00,66.5,56.8,28.48,SSW,194,0.0,0.0,71,0.00,FEW,,0.00,0.0,WeatherDisplay:10.37,2013-04-30 03:00:00,
2013-04-29 22:10:00,66.9,56.8,28.48,SSW,194,2.0,5.0,70,0.00,FEW,,0.00,0.0,WeatherDisplay:10.37,2013-04-30 03:10:00,
2013-04-29 22:20:00,68.3,57.3,28.49,SSW,194,0.0,4.0,68,0.00,FEW,,0.00,0.0,WeatherDisplay:10.37,2013-04-30 03:20:00,
2013-04-29 22:30:00,68.8,57.4,28.49,SSW,194,0.0,3.0,67,0.00,FEW,,0.00,0.0,WeatherDisplay:10.37,2013-04-30 03:30:00,
2013-04-29 22:40:00,68.5,57.1,28.49,SSW,194,1.0,4.0,67,0.00,FEW,,0.00,0.0,WeatherDisplay:10.37,2013-04-30 03:40:00,
2013-04-29 22:50:00,68.9,57.5,28.49,South,178,3.0,6.0,67,0.00,FEW,,0.00,0.0,WeatherDisplay:10.37,2013-04-30 03:50:00,
2013-04-29 23:00:00,69.6,58.2,28.49,SSE,160,2.0,9.0,67,0.00,FEW,,0.00,0.0,WeatherDisplay:10.37,2013-04-30 04:00:00,
2013-04-29 23:10:00,69.8,58.3,28.49,SSE,160,3.0,7.0,67,0.00,FEW,,0.00,0.0,WeatherDisplay:10.37,2013-04-30 04:10:00,
2013-04-29 23:20:00,69.7,58.3,28.49,South,173,3.0,7.0,67,0.00,FEW,,0.00,0.0,WeatherDisplay:10.37,2013-04-30 04:20:00,
2013-04-29 23:30:00,69.6,58.5,28.49,South,175,2.0,7.0,68,0.00,FEW,,0.00,0.0,WeatherDisplay:10.37,2013-04-30 04:30:00,
2013-04-29 23:40:00,69.3,58.3,28.49,SSE,164,2.0,6.0,68,0.00,FEW,,0.00,0.0,WeatherDisplay:10.37,2013-04-30 04:40:00,
2013-04-29 23:50:00,69.3,58.3,28.49,SSE,163,2.0,6.0,68,0.00,FEW,,0.00,0.0,WeatherDisplay:10.37,2013-04-30 04:50:00,